sensor_id;sensor_type;location;lat;lon;timestamp;pressure;altitude;pressure_sealevel;temperature;humidity
47763;BME280;33526;42.690;23.322;2023-02-13T00:01:06;96738.31;;;-1.06;90.26
47763;BME280;33526;42.690;23.322;2023-02-13T00:03:32;96745.31;;;-1.09;90.07
47763;BME280;33526;42.690;23.322;2023-02-13T00:05:57;96747.53;;;-1.14;90.23
47763;BME280;33526;42.690;23.322;2023-02-13T00:08:23;96716.88;;;-1.32;90.11
47763;BME280;33526;42.690;23.322;2023-02-13T00:10:48;96782.28;;;-0.90;89.86
47763;BME280;33526;42.690;23.322;2023-02-13T00:13:14;96748.06;;;-1.09;90.17
47763;BME280;33526;42.690;23.322;2023-02-13T00:15:45;96651.75;;;-1.64;89.84
47763;BME280;33526;42.690;23.322;2023-02-13T00:18:10;96758.63;;;-0.95;89.44
47763;BME280;33526;42.690;23.322;2023-02-13T00:20:36;96696.13;;;-1.30;89.48
47763;BME280;33526;42.690;23.322;2023-02-13T00:23:02;96687.22;;;-1.27;89.21
47763;BME280;33526;42.690;23.322;2023-02-13T00:25:27;96692.69;;;-1.27;89.29
47763;BME280;33526;42.690;23.322;2023-02-13T00:27:53;96796.59;;;-0.53;88.88
47763;BME280;33526;42.690;23.322;2023-02-13T00:30:21;96693.13;;;-1.25;88.86
47763;BME280;33526;42.690;23.322;2023-02-13T00:32:47;96784.09;;;-0.66;88.90
47763;BME280;33526;42.690;23.322;2023-02-13T00:35:12;96831.00;;;-0.43;88.51
47763;BME280;33526;42.690;23.322;2023-02-13T00:37:37;96822.84;;;-0.40;88.47
47763;BME280;33526;42.690;23.322;2023-02-13T00:40:03;96770.53;;;-0.75;88.66
47763;BME280;33526;42.690;23.322;2023-02-13T00:42:29;96745.09;;;-0.88;89.02
47763;BME280;33526;42.690;23.322;2023-02-13T00:44:54;96746.66;;;-0.87;89.17
47763;BME280;33526;42.690;23.322;2023-02-13T00:47:20;96796.84;;;-0.58;88.63
47763;BME280;33526;42.690;23.322;2023-02-13T00:49:45;96800.31;;;-0.61;88.88
47763;BME280;33526;42.690;23.322;2023-02-13T00:52:11;96805.44;;;-0.60;88.90
47763;BME280;33526;42.690;23.322;2023-02-13T00:54:36;96811.69;;;-0.47;88.62
47763;BME280;33526;42.690;23.322;2023-02-13T00:57:02;96836.59;;;-0.40;88.78
47763;BME280;33526;42.690;23.322;2023-02-13T00:59:27;96795.53;;;-0.64;89.16
47763;BME280;33526;42.690;23.322;2023-02-13T01:01:53;96804.91;;;-0.65;89.11
47763;BME280;33526;42.690;23.322;2023-02-13T01:04:18;96691.91;;;-1.27;89.07
47763;BME280;33526;42.690;23.322;2023-02-13T01:06:44;96831.53;;;-0.37;89.05
47763;BME280;33526;42.690;23.322;2023-02-13T01:09:10;96840.66;;;-0.33;89.04
47763;BME280;33526;42.690;23.322;2023-02-13T01:11:35;96712.47;;;-1.05;88.88
47763;BME280;33526;42.690;23.322;2023-02-13T01:14:01;96798.38;;;-0.45;88.73
47763;BME280;33526;42.690;23.322;2023-02-13T01:16:26;96751.13;;;-0.66;88.43
47763;BME280;33526;42.690;23.322;2023-02-13T01:18:52;96721.94;;;-0.87;88.02
47763;BME280;33526;42.690;23.322;2023-02-13T01:21:20;96819.63;;;-0.26;88.28
47763;BME280;33526;42.690;23.322;2023-02-13T01:23:46;96630.19;;;-1.49;88.31
47763;BME280;33526;42.690;23.322;2023-02-13T01:26:20;96815.84;;;-0.21;88.44
47763;BME280;33526;42.690;23.322;2023-02-13T01:28:46;96635.84;;;-1.42;87.72
47763;BME280;33526;42.690;23.322;2023-02-13T01:31:12;96812.03;;;-0.32;88.03
47763;BME280;33526;42.690;23.322;2023-02-13T01:33:37;96782.22;;;-0.46;88.22
47763;BME280;33526;42.690;23.322;2023-02-13T01:36:10;96839.94;;;0.02;88.16
47763;BME280;33526;42.690;23.322;2023-02-13T01:38:36;96842.84;;;0.09;87.76
47763;BME280;33526;42.690;23.322;2023-02-13T01:41:01;96804.03;;;-0.22;87.39
47763;BME280;33526;42.690;23.322;2023-02-13T01:43:51;96845.59;;;0.09;86.87
47763;BME280;33526;42.690;23.322;2023-02-13T01:46:38;96843.19;;;0.07;87.04
47763;BME280;33526;42.690;23.322;2023-02-13T01:49:20;96820.81;;;-0.11;86.84
47763;BME280;33526;42.690;23.322;2023-02-13T01:51:48;96734.81;;;-0.59;86.41
47763;BME280;33526;42.690;23.322;2023-02-13T01:54:19;96818.41;;;-0.12;86.84
47763;BME280;33526;42.690;23.322;2023-02-13T01:56:49;96721.16;;;-0.71;86.33
47763;BME280;33526;42.690;23.322;2023-02-13T01:59:19;96788.88;;;-0.31;86.37
47763;BME280;33526;42.690;23.322;2023-02-13T02:01:46;96785.69;;;-0.33;86.39
47763;BME280;33526;42.690;23.322;2023-02-13T02:04:21;96851.25;;;0.16;86.30
47763;BME280;33526;42.690;23.322;2023-02-13T02:06:52;96713.81;;;-0.83;86.49
47763;BME280;33526;42.690;23.322;2023-02-13T02:09:23;96826.09;;;-0.02;86.63
47763;BME280;33526;42.690;23.322;2023-02-13T02:12:05;96849.97;;;0.10;86.60
47763;BME280;33526;42.690;23.322;2023-02-13T02:14:32;96805.00;;;-0.14;86.36
47763;BME280;33526;42.690;23.322;2023-02-13T02:16:58;96757.41;;;-0.50;86.71
47763;BME280;33526;42.690;23.322;2023-02-13T02:22:18;96841.97;;;0.05;86.51
47763;BME280;33526;42.690;23.322;2023-02-13T02:41:57;96819.19;;;-0.44;89.09
47763;BME280;33526;42.690;23.322;2023-02-13T02:50:28;96868.44;;;-0.23;89.28
47763;BME280;33526;42.690;23.322;2023-02-13T02:58:27;96873.84;;;-0.26;89.13
47763;BME280;33526;42.690;23.322;2023-02-13T03:01:15;96800.91;;;-0.84;88.88
47763;BME280;33526;42.690;23.322;2023-02-13T03:04:00;96813.69;;;-0.75;89.21
47763;BME280;33526;42.690;23.322;2023-02-13T03:06:52;96807.72;;;-0.78;89.53
47763;BME280;33526;42.690;23.322;2023-02-13T03:09:31;96844.91;;;-0.52;89.34
47763;BME280;33526;42.690;23.322;2023-02-13T03:12:21;96859.47;;;-0.35;89.53
47763;BME280;33526;42.690;23.322;2023-02-13T03:15:07;96822.50;;;-0.54;89.22
47763;BME280;33526;42.690;23.322;2023-02-13T03:17:33;96855.63;;;-0.31;88.89
47763;BME280;33526;42.690;23.322;2023-02-13T03:20:26;96845.47;;;-0.30;88.39
47763;BME280;33526;42.690;23.322;2023-02-13T03:28:51;96878.56;;;-0.11;88.15
47763;BME280;33526;42.690;23.322;2023-02-13T03:31:51;96870.66;;;-0.12;87.99
47763;BME280;33526;42.690;23.322;2023-02-13T03:34:29;96835.16;;;-0.33;87.62
47763;BME280;33526;42.690;23.322;2023-02-13T03:37:17;96820.09;;;-0.40;87.25
47763;BME280;33526;42.690;23.322;2023-02-13T03:40:06;96859.22;;;-0.14;86.92
47763;BME280;33526;42.690;23.322;2023-02-13T03:42:52;96850.41;;;-0.04;86.81
47763;BME280;33526;42.690;23.322;2023-02-13T03:45:27;96853.06;;;-0.08;86.39
47763;BME280;33526;42.690;23.322;2023-02-13T03:48:13;96853.06;;;-0.08;86.50
47763;BME280;33526;42.690;23.322;2023-02-13T03:51:01;96843.50;;;-0.14;86.17
47763;BME280;33526;42.690;23.322;2023-02-13T03:53:28;96883.84;;;0.14;86.45
47763;BME280;33526;42.690;23.322;2023-02-13T03:55:57;96738.16;;;-0.82;86.19
47763;BME280;33526;42.690;23.322;2023-02-13T03:58:45;96841.81;;;-0.18;86.18
47763;BME280;33526;42.690;23.322;2023-02-13T04:01:33;96775.50;;;-0.65;86.46
47763;BME280;33526;42.690;23.322;2023-02-13T04:04:26;96869.75;;;-0.01;86.29
47763;BME280;33526;42.690;23.322;2023-02-13T04:06:58;96866.91;;;-0.20;85.71
47763;BME280;33526;42.690;23.322;2023-02-13T04:09:26;96862.38;;;-0.44;85.40
47763;BME280;33526;42.690;23.322;2023-02-13T04:14:51;96827.69;;;-0.81;85.48
47763;BME280;33526;42.690;23.322;2023-02-13T04:17:23;96858.63;;;-0.68;85.95
47763;BME280;33526;42.690;23.322;2023-02-13T04:19:51;96751.22;;;-1.39;85.73
47763;BME280;33526;42.690;23.322;2023-02-13T04:22:18;96867.56;;;-0.71;86.42
47763;BME280;33526;42.690;23.322;2023-02-13T04:24:44;96823.19;;;-1.01;86.70
47763;BME280;33526;42.690;23.322;2023-02-13T04:27:13;96857.19;;;-0.78;86.82
47763;BME280;33526;42.690;23.322;2023-02-13T04:29:39;96834.81;;;-0.92;87.01
47763;BME280;33526;42.690;23.322;2023-02-13T04:32:05;96721.81;;;-1.66;86.81
47763;BME280;33526;42.690;23.322;2023-02-13T04:34:30;96816.03;;;-1.06;86.72
47763;BME280;33526;42.690;23.322;2023-02-13T04:36:55;96852.84;;;-0.79;86.81
47763;BME280;33526;42.690;23.322;2023-02-13T04:39:21;96881.25;;;-0.59;86.66
47763;BME280;33526;42.690;23.322;2023-02-13T04:41:46;96824.09;;;-0.97;87.14
47763;BME280;33526;42.690;23.322;2023-02-13T04:44:12;96786.25;;;-1.04;86.85
47763;BME280;33526;42.690;23.322;2023-02-13T04:46:37;96887.31;;;-0.37;86.60
47763;BME280;33526;42.690;23.322;2023-02-13T04:49:02;96758.50;;;-1.14;86.01
47763;BME280;33526;42.690;23.322;2023-02-13T04:51:28;96789.47;;;-0.86;85.68
47763;BME280;33526;42.690;23.322;2023-02-13T04:53:53;96758.72;;;-1.07;84.96
47763;BME280;33526;42.690;23.322;2023-02-13T04:56:19;96794.34;;;-0.95;85.32
47763;BME280;33526;42.690;23.322;2023-02-13T04:58:44;96793.22;;;-1.06;84.41
47763;BME280;33526;42.690;23.322;2023-02-13T05:01:11;96829.59;;;-0.97;84.11
47763;BME280;33526;42.690;23.322;2023-02-13T05:03:36;96896.22;;;-0.56;84.15
47763;BME280;33526;42.690;23.322;2023-02-13T05:06:02;96875.31;;;-0.89;83.56
47763;BME280;33526;42.690;23.322;2023-02-13T05:08:27;96877.63;;;-0.91;84.36
47763;BME280;33526;42.690;23.322;2023-02-13T05:10:53;96883.69;;;-0.98;84.35
47763;BME280;33526;42.690;23.322;2023-02-13T05:13:18;96863.84;;;-1.07;84.13
47763;BME280;33526;42.690;23.322;2023-02-13T05:15:46;96901.91;;;-0.93;84.29
47763;BME280;33526;42.690;23.322;2023-02-13T05:18:11;96786.66;;;-1.74;84.33
47763;BME280;33526;42.690;23.322;2023-02-13T05:20:37;96857.63;;;-1.32;84.48
47763;BME280;33526;42.690;23.322;2023-02-13T05:23:02;96924.28;;;-0.79;84.40
47763;BME280;33526;42.690;23.322;2023-02-13T05:25:46;96917.50;;;-0.81;83.79
47763;BME280;33526;42.690;23.322;2023-02-13T05:28:12;96853.13;;;-1.24;83.84
47763;BME280;33526;42.690;23.322;2023-02-13T05:30:56;96915.25;;;-0.63;84.07
47763;BME280;33526;42.690;23.322;2023-02-13T05:33:21;96825.09;;;-1.18;83.40
47763;BME280;33526;42.690;23.322;2023-02-13T05:35:47;96919.13;;;-0.52;83.42
47763;BME280;33526;42.690;23.322;2023-02-13T05:38:12;96821.41;;;-1.09;82.37
47763;BME280;33526;42.690;23.322;2023-02-13T05:40:37;96925.53;;;-0.32;82.26
47763;BME280;33526;42.690;23.322;2023-02-13T05:43:03;96847.06;;;-0.89;81.79
47763;BME280;33526;42.690;23.322;2023-02-13T05:45:29;96813.88;;;-1.12;81.49
47763;BME280;33526;42.690;23.322;2023-02-13T05:47:55;96896.50;;;-0.45;81.78
47763;BME280;33526;42.690;23.322;2023-02-13T05:50:20;96902.00;;;-0.61;81.32
47763;BME280;33526;42.690;23.322;2023-02-13T05:52:46;96847.66;;;-0.96;81.63
47763;BME280;33526;42.690;23.322;2023-02-13T05:55:12;96817.41;;;-1.12;81.14
47763;BME280;33526;42.690;23.322;2023-02-13T05:57:37;96911.06;;;-0.45;81.28
47763;BME280;33526;42.690;23.322;2023-02-13T06:00:03;96915.25;;;-0.63;80.70
47763;BME280;33526;42.690;23.322;2023-02-13T06:02:41;96818.78;;;-1.46;80.97
47763;BME280;33526;42.690;23.322;2023-02-13T06:05:08;96749.63;;;-1.80;81.10
47763;BME280;33526;42.690;23.322;2023-02-13T06:07:36;96832.69;;;-1.27;81.05
47763;BME280;33526;42.690;23.322;2023-02-13T06:10:24;96733.47;;;-1.69;80.88
47763;BME280;33526;42.690;23.322;2023-02-13T06:12:53;96714.06;;;-1.77;80.46
47763;BME280;33526;42.690;23.322;2023-02-13T06:15:21;96811.41;;;-1.02;80.03
47763;BME280;33526;42.690;23.322;2023-02-13T06:17:49;96745.38;;;-1.65;79.20
47763;BME280;33526;42.690;23.322;2023-02-13T06:20:20;96948.75;;;-0.29;79.37
47763;BME280;33526;42.690;23.322;2023-02-13T06:22:49;96812.81;;;-1.36;79.99
47763;BME280;33526;42.690;23.322;2023-02-13T06:25:16;96836.47;;;-1.03;80.10
47763;BME280;33526;42.690;23.322;2023-02-13T06:27:42;96745.66;;;-1.55;79.91
47763;BME280;33526;42.690;23.322;2023-02-13T06:30:16;96962.38;;;-0.05;79.82
47763;BME280;33526;42.690;23.322;2023-02-13T06:32:50;96883.50;;;-0.48;78.75
47763;BME280;33526;42.690;23.322;2023-02-13T06:36:20;96727.59;;;-1.56;78.54
47763;BME280;33526;42.690;23.322;2023-02-13T06:39:29;96792.81;;;-0.92;78.95
47763;BME280;33526;42.690;23.322;2023-02-13T06:44:21;96781.94;;;-0.89;77.95
47763;BME280;33526;42.690;23.322;2023-02-13T06:46:49;96884.31;;;-0.16;77.74
47763;BME280;33526;42.690;23.322;2023-02-13T06:49:23;96855.94;;;-0.36;78.17
47763;BME280;33526;42.690;23.322;2023-02-13T06:51:54;96967.34;;;0.37;78.38
47763;BME280;33526;42.690;23.322;2023-02-13T06:54:20;96781.56;;;-1.03;79.25
47763;BME280;33526;42.690;23.322;2023-02-13T06:56:50;96811.38;;;-0.73;79.30
47763;BME280;33526;42.690;23.322;2023-02-13T06:59:21;96855.72;;;-0.27;78.62
47763;BME280;33526;42.690;23.322;2023-02-13T07:01:47;96784.19;;;-0.63;77.90
47763;BME280;33526;42.690;23.322;2023-02-13T07:04:17;96894.22;;;0.21;78.12
47763;BME280;33526;42.690;23.322;2023-02-13T07:06:46;96960.53;;;0.83;77.85
47763;BME280;33526;42.690;23.322;2023-02-13T07:09:15;96784.72;;;-0.25;77.49
47763;BME280;33526;42.690;23.322;2023-02-13T07:11:42;96812.25;;;-0.06;76.53
47763;BME280;33526;42.690;23.322;2023-02-13T07:14:12;96793.59;;;0.04;76.55
47763;BME280;33526;42.690;23.322;2023-02-13T07:32:11;96919.44;;;0.07;77.76
47763;BME280;33526;42.690;23.322;2023-02-13T07:34:37;96874.63;;;-0.10;78.39
47763;BME280;33526;42.690;23.322;2023-02-13T07:37:08;96895.28;;;0.16;77.81
47763;BME280;33526;42.690;23.322;2023-02-13T07:39:36;96780.72;;;-0.44;77.32
47763;BME280;33526;42.690;23.322;2023-02-13T07:42:06;96851.59;;;0.30;77.54
47763;BME280;33526;42.690;23.322;2023-02-13T07:44:38;96901.41;;;0.76;76.17
47763;BME280;33526;42.690;23.322;2023-02-13T07:47:08;96962.94;;;1.39;75.82
47763;BME280;33526;42.690;23.322;2023-02-13T07:49:37;96909.97;;;1.10;74.73
47763;BME280;33526;42.690;23.322;2023-02-13T07:52:08;96817.63;;;0.78;74.90
47763;BME280;33526;42.690;23.322;2023-02-13T07:54:48;96820.63;;;1.11;73.74
47763;BME280;33526;42.690;23.322;2023-02-13T07:57:23;96799.75;;;1.10;74.04
47763;BME280;33526;42.690;23.322;2023-02-13T07:59:48;96871.81;;;1.51;72.25
47763;BME280;33526;42.690;23.322;2023-02-13T08:02:29;96812.97;;;1.01;72.27
47763;BME280;33526;42.690;23.322;2023-02-13T08:07:54;96846.47;;;1.23;72.37
47763;BME280;33526;42.690;23.322;2023-02-13T08:10:44;96973.03;;;1.94;72.63
47763;BME280;33526;42.690;23.322;2023-02-13T08:13:41;96872.25;;;1.34;72.73
47763;BME280;33526;42.690;23.322;2023-02-13T08:16:08;96795.06;;;0.91;72.63
47763;BME280;33526;42.690;23.322;2023-02-13T08:18:41;96912.88;;;1.80;72.12
47763;BME280;33526;42.690;23.322;2023-02-13T08:21:38;96962.03;;;2.40;71.58
47763;BME280;33526;42.690;23.322;2023-02-13T08:24:25;96897.81;;;1.97;71.08
47763;BME280;33526;42.690;23.322;2023-02-13T08:33:06;96840.66;;;0.89;72.81
47763;BME280;33526;42.690;23.322;2023-02-13T08:35:58;96970.31;;;1.74;73.58
47763;BME280;33526;42.690;23.322;2023-02-13T08:39:13;96976.88;;;1.89;73.33
47763;BME280;33526;42.690;23.322;2023-02-13T08:42:13;96878.34;;;1.43;72.31
47763;BME280;33526;42.690;23.322;2023-02-13T08:44:41;96893.94;;;1.55;72.54
47763;BME280;33526;42.690;23.322;2023-02-13T08:47:14;96864.00;;;1.34;72.26
47763;BME280;33526;42.690;23.322;2023-02-13T08:49:41;96909.44;;;1.63;72.22
47763;BME280;33526;42.690;23.322;2023-02-13T08:52:23;96971.97;;;1.98;73.26
47763;BME280;33526;42.690;23.322;2023-02-13T08:55:11;96789.25;;;0.97;71.91
47763;BME280;33526;42.690;23.322;2023-02-13T08:57:45;96923.69;;;1.88;72.13
47763;BME280;33526;42.690;23.322;2023-02-13T09:00:14;96782.66;;;1.01;71.49
47763;BME280;33526;42.690;23.322;2023-02-13T09:02:41;96891.25;;;1.59;72.30
47763;BME280;33526;42.690;23.322;2023-02-13T09:05:32;96888.09;;;1.83;71.55
47763;BME280;33526;42.690;23.322;2023-02-13T09:08:00;96856.53;;;1.58;72.24
47763;BME280;33526;42.690;23.322;2023-02-13T09:10:38;96818.09;;;1.45;71.02
47763;BME280;33526;42.690;23.322;2023-02-13T09:13:38;96790.31;;;1.11;71.82
47763;BME280;33526;42.690;23.322;2023-02-13T10:29:02;96880.34;;;3.26;69.01
47763;BME280;33526;42.690;23.322;2023-02-13T10:36:19;96874.25;;;3.13;69.47
47763;BME280;33526;42.690;23.322;2023-02-13T11:21:56;96657.03;;;3.09;65.62
47763;BME280;33526;42.690;23.322;2023-02-13T11:34:44;96608.78;;;3.51;63.71
47763;BME280;33526;42.690;23.322;2023-02-13T11:47:12;96756.69;;;5.11;59.71
47763;BME280;33526;42.690;23.322;2023-02-13T11:59:47;96719.50;;;5.30;57.61
47763;BME280;33526;42.690;23.322;2023-02-13T12:06:19;96711.59;;;5.64;56.58
47763;BME280;33526;42.690;23.322;2023-02-13T13:22:49;96645.72;;;6.04;50.96
47763;BME280;33526;42.690;23.322;2023-02-13T13:26:10;96634.97;;;6.13;51.35
47763;BME280;33526;42.690;23.322;2023-02-13T13:50:40;96502.34;;;5.29;51.54
47763;BME280;33526;42.690;23.322;2023-02-13T13:54:18;96637.72;;;6.28;51.20
47763;BME280;33526;42.690;23.322;2023-02-13T14:49:34;96598.97;;;5.63;54.20
47763;BME280;33526;42.690;23.322;2023-02-13T14:56:10;96481.03;;;4.62;54.84
47763;BME280;33526;42.690;23.322;2023-02-13T15:14:38;96593.91;;;5.22;55.37
47763;BME280;33526;42.690;23.322;2023-02-13T15:17:52;96590.31;;;5.18;55.45
47763;BME280;33526;42.690;23.322;2023-02-13T15:26:42;96603.78;;;5.02;55.73
47763;BME280;33526;42.690;23.322;2023-02-13T15:52:54;96442.03;;;3.47;56.75
47763;BME280;33526;42.690;23.322;2023-02-13T15:56:11;96470.91;;;3.56;57.33
47763;BME280;33526;42.690;23.322;2023-02-13T15:59:17;96615.13;;;4.35;57.03
47763;BME280;33526;42.690;23.322;2023-02-13T16:04:53;96477.47;;;3.23;57.96
47763;BME280;33526;42.690;23.322;2023-02-13T16:10:30;96610.31;;;4.14;58.26
47763;BME280;33526;42.690;23.322;2023-02-13T16:16:11;96432.69;;;2.92;58.75
47763;BME280;33526;42.690;23.322;2023-02-13T16:19:43;96610.59;;;3.91;59.37
47763;BME280;33526;42.690;23.322;2023-02-13T16:22:43;96616.06;;;3.80;60.02
47763;BME280;33526;42.690;23.322;2023-02-13T16:25:23;96631.13;;;3.87;59.24
47763;BME280;33526;42.690;23.322;2023-02-13T16:31:27;96574.63;;;3.25;60.56
47763;BME280;33526;42.690;23.322;2023-02-13T16:34:26;96466.75;;;2.55;60.72
47763;BME280;33526;42.690;23.322;2023-02-13T16:37:32;96634.16;;;3.67;60.84
47763;BME280;33526;42.690;23.322;2023-02-13T16:54:38;96471.81;;;2.49;62.14
47763;BME280;33526;42.690;23.322;2023-02-13T17:06:57;96488.09;;;2.62;64.24
47763;BME280;33526;42.690;23.322;2023-02-13T17:09:27;96517.44;;;2.81;62.79
47763;BME280;33526;42.690;23.322;2023-02-13T17:12:08;96516.59;;;2.73;62.67
47763;BME280;33526;42.690;23.322;2023-02-13T17:15:00;96564.91;;;2.90;62.92
47763;BME280;33526;42.690;23.322;2023-02-13T17:17:31;96454.47;;;2.04;62.82
47763;BME280;33526;42.690;23.322;2023-02-13T17:19:58;96564.84;;;2.83;63.28
47763;BME280;33526;42.690;23.322;2023-02-13T17:22:45;96517.97;;;2.49;63.04
47763;BME280;33526;42.690;23.322;2023-02-13T17:25:34;96635.34;;;3.11;63.96
47763;BME280;33526;42.690;23.322;2023-02-13T17:30:36;96533.66;;;2.38;63.00
47763;BME280;33526;42.690;23.322;2023-02-13T17:33:36;96533.06;;;2.62;65.08
47763;BME280;33526;42.690;23.322;2023-02-13T17:36:20;96492.50;;;2.22;63.27
47763;BME280;33526;42.690;23.322;2023-02-13T17:38:49;96465.94;;;2.10;64.04
47763;BME280;33526;42.690;23.322;2023-02-13T17:41:24;96625.81;;;3.04;63.92
47763;BME280;33526;42.690;23.322;2023-02-13T17:43:50;96485.56;;;2.01;63.79
47763;BME280;33526;42.690;23.322;2023-02-13T17:46:23;96520.84;;;2.19;64.01
47763;BME280;33526;42.690;23.322;2023-02-13T17:48:49;96577.53;;;2.50;63.85
47763;BME280;33526;42.690;23.322;2023-02-13T17:51:18;96433.47;;;1.55;63.88
47763;BME280;33526;42.690;23.322;2023-02-13T17:53:43;96503.53;;;1.84;64.45
47763;BME280;33526;42.690;23.322;2023-02-13T17:56:14;96517.41;;;1.91;64.10
47763;BME280;33526;42.690;23.322;2023-02-13T17:58:41;96525.44;;;2.04;64.33
47763;BME280;33526;42.690;23.322;2023-02-13T18:01:09;96475.38;;;1.68;64.71
47763;BME280;33526;42.690;23.322;2023-02-13T18:03:38;96522.16;;;1.95;64.40
47763;BME280;33526;42.690;23.322;2023-02-13T18:06:05;96607.91;;;2.50;64.18
47763;BME280;33526;42.690;23.322;2023-02-13T18:08:40;96503.78;;;1.72;64.31
47763;BME280;33526;42.690;23.322;2023-02-13T18:11:34;96555.53;;;2.16;64.83
47763;BME280;33526;42.690;23.322;2023-02-13T18:21:07;96608.53;;;2.33;65.05
47763;BME280;33526;42.690;23.322;2023-02-13T18:29:25;96441.72;;;1.21;65.40
47763;BME280;33526;42.690;23.322;2023-02-13T18:31:52;96472.63;;;1.38;65.42
47763;BME280;33526;42.690;23.322;2023-02-13T18:34:22;96465.91;;;1.35;65.48
47763;BME280;33526;42.690;23.322;2023-02-13T18:36:50;96596.19;;;2.23;65.34
47763;BME280;33526;42.690;23.322;2023-02-13T18:39:22;96440.00;;;1.09;65.45
47763;BME280;33526;42.690;23.322;2023-02-13T18:41:49;96600.50;;;2.20;66.12
47763;BME280;33526;42.690;23.322;2023-02-13T18:44:15;96432.88;;;1.05;65.42
47763;BME280;33526;42.690;23.322;2023-02-13T18:46:40;96515.88;;;1.64;65.53
47763;BME280;33526;42.690;23.322;2023-02-13T18:49:11;96458.41;;;1.32;65.27
47763;BME280;33526;42.690;23.322;2023-02-13T18:51:40;96397.13;;;0.82;65.57
47763;BME280;33526;42.690;23.322;2023-02-13T18:54:09;96526.22;;;1.70;65.63
47763;BME280;33526;42.690;23.322;2023-02-13T18:56:35;96602.53;;;2.23;66.18
47763;BME280;33526;42.690;23.322;2023-02-13T18:59:01;96609.13;;;2.15;66.21
47763;BME280;33526;42.690;23.322;2023-02-13T19:01:35;96443.84;;;1.01;66.50
47763;BME280;33526;42.690;23.322;2023-02-13T19:04:23;96489.13;;;1.34;65.86
47763;BME280;33526;42.690;23.322;2023-02-13T19:07:04;96457.72;;;1.08;65.78
47763;BME280;33526;42.690;23.322;2023-02-13T19:09:38;96508.06;;;1.36;65.93
47763;BME280;33526;42.690;23.322;2023-02-13T19:12:19;96512.03;;;1.38;66.10
47763;BME280;33526;42.690;23.322;2023-02-13T19:14:45;96443.84;;;1.01;66.05
47763;BME280;33526;42.690;23.322;2023-02-13T19:17:15;96531.91;;;1.55;66.15
47763;BME280;33526;42.690;23.322;2023-02-13T19:20:28;96520.56;;;1.60;65.56
47763;BME280;33526;42.690;23.322;2023-02-13T19:22:58;96604.34;;;2.12;65.89
47763;BME280;33526;42.690;23.322;2023-02-13T19:25:45;96613.81;;;2.11;65.52
47763;BME280;33526;42.690;23.322;2023-02-13T19:28:19;96595.22;;;2.08;65.44
47763;BME280;33526;42.690;23.322;2023-02-13T19:36:19;96605.16;;;2.13;64.53
47763;BME280;33526;42.690;23.322;2023-02-13T19:39:19;96501.50;;;1.47;64.37
47763;BME280;33526;42.690;23.322;2023-02-13T19:44:46;96491.63;;;1.43;64.67
47763;BME280;33526;42.690;23.322;2023-02-13T19:47:43;96457.47;;;1.21;64.50
47763;BME280;33526;42.690;23.322;2023-02-13T19:56:10;96598.03;;;2.12;64.05
47763;BME280;33526;42.690;23.322;2023-02-13T19:58:53;96435.56;;;1.01;64.17
47763;BME280;33526;42.690;23.322;2023-02-13T20:01:20;96424.13;;;0.99;65.27
47763;BME280;33526;42.690;23.322;2023-02-13T20:03:54;96417.75;;;0.95;64.43
47763;BME280;33526;42.690;23.322;2023-02-13T20:06:44;96530.94;;;1.70;65.12
47763;BME280;33526;42.690;23.322;2023-02-13T20:09:47;96491.56;;;1.39;65.04
47763;BME280;33526;42.690;23.322;2023-02-13T20:12:28;96466.47;;;1.18;64.79
47763;BME280;33526;42.690;23.322;2023-02-13T20:15:00;96428.03;;;0.98;64.86
47763;BME280;33526;42.690;23.322;2023-02-13T20:17:59;96533.69;;;1.70;64.67
47763;BME280;33526;42.690;23.322;2023-02-13T20:21:09;96459.06;;;1.22;64.58
47763;BME280;33526;42.690;23.322;2023-02-13T20:23:50;96427.31;;;1.01;63.72
47763;BME280;33526;42.690;23.322;2023-02-13T21:03:05;96566.97;;;1.84;63.88
47763;BME280;33526;42.690;23.322;2023-02-13T21:06:34;96561.44;;;1.84;64.22
47763;BME280;33526;42.690;23.322;2023-02-13T21:12:32;96556.25;;;1.79;64.18
47763;BME280;33526;42.690;23.322;2023-02-13T21:15:35;96545.59;;;1.78;64.55
47763;BME280;33526;42.690;23.322;2023-02-13T21:18:20;96442.34;;;1.07;65.19
47763;BME280;33526;42.690;23.322;2023-02-13T21:23:36;96464.97;;;1.24;65.38
47763;BME280;33526;42.690;23.322;2023-02-13T21:26:39;96387.66;;;0.79;64.54
47763;BME280;33526;42.690;23.322;2023-02-13T21:29:14;96477.75;;;1.36;65.17
47763;BME280;33526;42.690;23.322;2023-02-13T21:32:27;96374.19;;;0.70;65.17
47763;BME280;33526;42.690;23.322;2023-02-13T21:35:25;96459.94;;;1.29;65.16
47763;BME280;33526;42.690;23.322;2023-02-13T21:41:10;96358.31;;;0.60;65.87
47763;BME280;33526;42.690;23.322;2023-02-13T21:43:57;96377.34;;;0.72;66.02
47763;BME280;33526;42.690;23.322;2023-02-13T21:46:41;96365.44;;;0.65;66.21
47763;BME280;33526;42.690;23.322;2023-02-13T21:51:55;96493.31;;;1.55;66.35
47763;BME280;33526;42.690;23.322;2023-02-13T21:59:32;96469.47;;;1.36;67.01
47763;BME280;33526;42.690;23.322;2023-02-13T22:02:24;96391.34;;;0.90;67.29
47763;BME280;33526;42.690;23.322;2023-02-13T22:05:52;96521.66;;;1.85;67.63
47763;BME280;33526;42.690;23.322;2023-02-13T22:11:01;96518.16;;;1.88;67.03
47763;BME280;33526;42.690;23.322;2023-02-13T22:13:37;96368.09;;;0.88;67.42
47763;BME280;33526;42.690;23.322;2023-02-13T22:21:20;96323.75;;;0.66;67.75
47763;BME280;33526;42.690;23.322;2023-02-13T22:24:01;96320.59;;;0.64;68.03
47763;BME280;33526;42.690;23.322;2023-02-13T22:26:50;96319.41;;;0.62;67.63
47763;BME280;33526;42.690;23.322;2023-02-13T22:34:47;96342.38;;;0.76;68.77
47763;BME280;33526;42.690;23.322;2023-02-13T22:37:43;96357.50;;;0.90;68.95
47763;BME280;33526;42.690;23.322;2023-02-13T22:43:24;96291.22;;;0.42;68.65
47763;BME280;33526;42.690;23.322;2023-02-13T22:46:06;96335.72;;;0.78;68.93
47763;BME280;33526;42.690;23.322;2023-02-13T22:48:54;96389.63;;;1.09;69.02
47763;BME280;33526;42.690;23.322;2023-02-13T22:51:29;96318.53;;;0.57;69.27
47763;BME280;33526;42.690;23.322;2023-02-13T22:56:51;96486.56;;;1.82;69.21
47763;BME280;33526;42.690;23.322;2023-02-13T22:59:21;96381.03;;;1.14;69.39